sensor_id;sensor_type;location;lat;lon;timestamp;temperature;humidity
22288;DHT22;11312;51.464;6.968;2022-09-16T00:00:25;13.50;21.90
22288;DHT22;11312;51.464;6.968;2022-09-16T00:02:52;13.50;99.90
22288;DHT22;11312;51.464;6.968;2022-09-16T00:05:18;13.50;99.90
22288;DHT22;11312;51.464;6.968;2022-09-16T00:07:44;13.50;99.90
22288;DHT22;11312;51.464;6.968;2022-09-16T00:10:10;13.50;99.90
22288;DHT22;11312;51.464;6.968;2022-09-16T00:12:36;13.50;99.90
22288;DHT22;11312;51.464;6.968;2022-09-16T00:15:02;13.50;95.00
22288;DHT22;11312;51.464;6.968;2022-09-16T00:17:29;13.50;99.90
22288;DHT22;11312;51.464;6.968;2022-09-16T00:19:56;13.50;99.90
22288;DHT22;11312;51.464;6.968;2022-09-16T00:22:22;13.50;99.90
22288;DHT22;11312;51.464;6.968;2022-09-16T00:24:48;13.50;99.90
22288;DHT22;11312;51.464;6.968;2022-09-16T00:27:14;13.40;91.60
22288;DHT22;11312;51.464;6.968;2022-09-16T00:29:40;13.40;99.90
22288;DHT22;11312;51.464;6.968;2022-09-16T00:32:06;13.50;99.90
22288;DHT22;11312;51.464;6.968;2022-09-16T00:34:31;13.40;99.90
22288;DHT22;11312;51.464;6.968;2022-09-16T00:36:57;13.40;99.90
22288;DHT22;11312;51.464;6.968;2022-09-16T00:39:23;13.40;99.90
22288;DHT22;11312;51.464;6.968;2022-09-16T00:41:49;13.40;99.90
22288;DHT22;11312;51.464;6.968;2022-09-16T00:44:50;13.40;99.90
22288;DHT22;11312;51.464;6.968;2022-09-16T00:47:23;13.40;99.90
22288;DHT22;11312;51.464;6.968;2022-09-16T00:49:51;13.40;99.90
22288;DHT22;11312;51.464;6.968;2022-09-16T00:52:18;13.30;99.90
22288;DHT22;11312;51.464;6.968;2022-09-16T00:54:44;13.30;99.90
22288;DHT22;11312;51.464;6.968;2022-09-16T00:57:11;13.30;99.90
22288;DHT22;11312;51.464;6.968;2022-09-16T00:59:41;13.30;99.90
22288;DHT22;11312;51.464;6.968;2022-09-16T01:02:10;13.30;99.90
22288;DHT22;11312;51.464;6.968;2022-09-16T01:07:20;13.40;99.90
22288;DHT22;11312;51.464;6.968;2022-09-16T01:09:50;13.40;99.90
22288;DHT22;11312;51.464;6.968;2022-09-16T01:12:16;13.40;99.90
22288;DHT22;11312;51.464;6.968;2022-09-16T01:14:41;13.30;99.90
22288;DHT22;11312;51.464;6.968;2022-09-16T01:36:52;13.20;99.90
22288;DHT22;11312;51.464;6.968;2022-09-16T01:45:18;13.30;99.90
22288;DHT22;11312;51.464;6.968;2022-09-16T01:48:02;13.20;99.90
22288;DHT22;11312;51.464;6.968;2022-09-16T01:50:40;13.30;99.90
22288;DHT22;11312;51.464;6.968;2022-09-16T01:53:27;13.30;99.90
22288;DHT22;11312;51.464;6.968;2022-09-16T01:56:08;13.30;99.90
22288;DHT22;11312;51.464;6.968;2022-09-16T01:58:44;13.30;99.90
22288;DHT22;11312;51.464;6.968;2022-09-16T02:01:16;13.20;99.90
22288;DHT22;11312;51.464;6.968;2022-09-16T02:03:49;13.10;99.90
22288;DHT22;11312;51.464;6.968;2022-09-16T02:06:22;13.10;99.90
22288;DHT22;11312;51.464;6.968;2022-09-16T02:08:56;13.10;99.90
22288;DHT22;11312;51.464;6.968;2022-09-16T02:11:23;13.10;99.90
22288;DHT22;11312;51.464;6.968;2022-09-16T02:14:23;13.20;99.90
22288;DHT22;11312;51.464;6.968;2022-09-16T02:19:23;13.10;99.90
22288;DHT22;11312;51.464;6.968;2022-09-16T02:21:51;13.20;99.90
22288;DHT22;11312;51.464;6.968;2022-09-16T02:24:19;13.20;99.90
22288;DHT22;11312;51.464;6.968;2022-09-16T02:26:52;13.00;99.90
22288;DHT22;11312;51.464;6.968;2022-09-16T02:29:24;13.10;99.90
22288;DHT22;11312;51.464;6.968;2022-09-16T02:31:53;13.10;99.90
22288;DHT22;11312;51.464;6.968;2022-09-16T02:34:29;13.00;99.90
22288;DHT22;11312;51.464;6.968;2022-09-16T02:37:02;13.10;99.90
22288;DHT22;11312;51.464;6.968;2022-09-16T02:39:32;13.10;99.90
22288;DHT22;11312;51.464;6.968;2022-09-16T02:42:00;13.10;99.90
22288;DHT22;11312;51.464;6.968;2022-09-16T02:44:27;13.10;99.90
22288;DHT22;11312;51.464;6.968;2022-09-16T02:49:38;13.00;99.90
22288;DHT22;11312;51.464;6.968;2022-09-16T02:52:22;13.10;99.90
22288;DHT22;11312;51.464;6.968;2022-09-16T02:57:25;13.00;99.90
22288;DHT22;11312;51.464;6.968;2022-09-16T02:59:51;13.00;99.90
22288;DHT22;11312;51.464;6.968;2022-09-16T03:02:17;12.90;99.90
22288;DHT22;11312;51.464;6.968;2022-09-16T03:04:43;13.00;99.90
22288;DHT22;11312;51.464;6.968;2022-09-16T03:07:10;12.80;99.90
22288;DHT22;11312;51.464;6.968;2022-09-16T03:09:39;12.90;99.90
22288;DHT22;11312;51.464;6.968;2022-09-16T03:25:31;12.70;99.90
22288;DHT22;11312;51.464;6.968;2022-09-16T03:30:34;12.70;99.90
22288;DHT22;11312;51.464;6.968;2022-09-16T03:33:08;12.70;99.90
22288;DHT22;11312;51.464;6.968;2022-09-16T03:35:44;12.70;99.90
22288;DHT22;11312;51.464;6.968;2022-09-16T03:38:12;12.70;99.90
22288;DHT22;11312;51.464;6.968;2022-09-16T03:40:40;12.70;99.90
22288;DHT22;11312;51.464;6.968;2022-09-16T03:43:11;12.70;99.90
22288;DHT22;11312;51.464;6.968;2022-09-16T03:45:37;12.70;99.90
22288;DHT22;11312;51.464;6.968;2022-09-16T03:48:05;12.70;99.90
22288;DHT22;11312;51.464;6.968;2022-09-16T03:50:31;12.70;99.90
22288;DHT22;11312;51.464;6.968;2022-09-16T03:52:57;12.70;99.90
22288;DHT22;11312;51.464;6.968;2022-09-16T03:55:22;12.70;99.90
22288;DHT22;11312;51.464;6.968;2022-09-16T03:57:48;12.80;99.90
22288;DHT22;11312;51.464;6.968;2022-09-16T04:00:14;12.70;99.90
22288;DHT22;11312;51.464;6.968;2022-09-16T04:02:40;12.60;99.90
22288;DHT22;11312;51.464;6.968;2022-09-16T04:05:07;12.70;99.90
22288;DHT22;11312;51.464;6.968;2022-09-16T04:07:34;12.70;99.90
22288;DHT22;11312;51.464;6.968;2022-09-16T04:10:00;12.70;99.90
22288;DHT22;11312;51.464;6.968;2022-09-16T04:12:26;12.70;99.90
22288;DHT22;11312;51.464;6.968;2022-09-16T04:14:52;12.80;99.90
22288;DHT22;11312;51.464;6.968;2022-09-16T04:17:18;12.70;99.90
22288;DHT22;11312;51.464;6.968;2022-09-16T04:19:44;12.70;99.90
22288;DHT22;11312;51.464;6.968;2022-09-16T04:22:09;12.70;99.90
22288;DHT22;11312;51.464;6.968;2022-09-16T04:24:35;12.70;99.90
22288;DHT22;11312;51.464;6.968;2022-09-16T04:27:00;12.60;99.90
22288;DHT22;11312;51.464;6.968;2022-09-16T04:29:26;12.60;99.90
22288;DHT22;11312;51.464;6.968;2022-09-16T04:31:53;12.70;99.90
22288;DHT22;11312;51.464;6.968;2022-09-16T04:34:18;12.70;99.90
22288;DHT22;11312;51.464;6.968;2022-09-16T04:36:44;12.70;99.90
22288;DHT22;11312;51.464;6.968;2022-09-16T04:39:10;12.70;99.90
22288;DHT22;11312;51.464;6.968;2022-09-16T04:41:37;12.70;99.90
22288;DHT22;11312;51.464;6.968;2022-09-16T04:44:03;12.80;99.90
22288;DHT22;11312;51.464;6.968;2022-09-16T04:46:30;12.70;99.90
22288;DHT22;11312;51.464;6.968;2022-09-16T04:48:57;12.70;99.90
22288;DHT22;11312;51.464;6.968;2022-09-16T04:51:24;12.80;99.90
22288;DHT22;11312;51.464;6.968;2022-09-16T04:53:53;12.70;99.90
22288;DHT22;11312;51.464;6.968;2022-09-16T04:56:22;12.70;99.90
22288;DHT22;11312;51.464;6.968;2022-09-16T04:58:57;12.70;99.90
22288;DHT22;11312;51.464;6.968;2022-09-16T05:01:28;12.70;99.90
22288;DHT22;11312;51.464;6.968;2022-09-16T05:03:57;12.70;99.90
22288;DHT22;11312;51.464;6.968;2022-09-16T05:06:26;12.70;99.90
22288;DHT22;11312;51.464;6.968;2022-09-16T05:08:53;12.60;99.90
22288;DHT22;11312;51.464;6.968;2022-09-16T05:11:22;12.60;99.90
22288;DHT22;11312;51.464;6.968;2022-09-16T05:13:48;12.60;99.90
22288;DHT22;11312;51.464;6.968;2022-09-16T05:16:16;12.70;99.90
22288;DHT22;11312;51.464;6.968;2022-09-16T05:18:43;12.60;99.90
22288;DHT22;11312;51.464;6.968;2022-09-16T05:21:17;12.70;99.90
22288;DHT22;11312;51.464;6.968;2022-09-16T05:23:44;12.60;99.90
22288;DHT22;11312;51.464;6.968;2022-09-16T05:26:13;12.50;99.90
22288;DHT22;11312;51.464;6.968;2022-09-16T05:28:39;12.50;99.90
22288;DHT22;11312;51.464;6.968;2022-09-16T05:31:17;12.40;99.90
22288;DHT22;11312;51.464;6.968;2022-09-16T05:33:45;12.50;99.90
22288;DHT22;11312;51.464;6.968;2022-09-16T05:36:14;12.50;99.90
22288;DHT22;11312;51.464;6.968;2022-09-16T05:38:41;12.50;99.90
22288;DHT22;11312;51.464;6.968;2022-09-16T05:41:07;12.50;99.90
22288;DHT22;11312;51.464;6.968;2022-09-16T05:43:33;12.50;99.90
22288;DHT22;11312;51.464;6.968;2022-09-16T05:45:59;12.60;99.90
22288;DHT22;11312;51.464;6.968;2022-09-16T05:48:26;12.70;99.90
22288;DHT22;11312;51.464;6.968;2022-09-16T05:50:54;12.70;99.90
22288;DHT22;11312;51.464;6.968;2022-09-16T05:53:20;12.70;99.90
22288;DHT22;11312;51.464;6.968;2022-09-16T05:56:10;12.80;99.90
22288;DHT22;11312;51.464;6.968;2022-09-16T05:58:36;12.90;99.90
22288;DHT22;11312;51.464;6.968;2022-09-16T06:01:10;13.00;99.90
22288;DHT22;11312;51.464;6.968;2022-09-16T06:03:37;13.00;99.90
22288;DHT22;11312;51.464;6.968;2022-09-16T06:06:24;13.00;99.90
22288;DHT22;11312;51.464;6.968;2022-09-16T06:08:54;13.10;99.90
22288;DHT22;11312;51.464;6.968;2022-09-16T06:11:22;13.00;99.90
22288;DHT22;11312;51.464;6.968;2022-09-16T06:13:58;13.10;99.90
22288;DHT22;11312;51.464;6.968;2022-09-16T06:16:28;13.10;99.90
22288;DHT22;11312;51.464;6.968;2022-09-16T06:18:57;13.00;99.90
22288;DHT22;11312;51.464;6.968;2022-09-16T06:21:23;13.10;99.90
22288;DHT22;11312;51.464;6.968;2022-09-16T06:23:49;13.10;99.90
22288;DHT22;11312;51.464;6.968;2022-09-16T06:26:20;13.20;99.90
22288;DHT22;11312;51.464;6.968;2022-09-16T06:28:47;13.10;99.90
22288;DHT22;11312;51.464;6.968;2022-09-16T06:31:16;13.20;99.90
22288;DHT22;11312;51.464;6.968;2022-09-16T06:33:42;13.10;99.90
22288;DHT22;11312;51.464;6.968;2022-09-16T06:36:13;13.20;99.90
22288;DHT22;11312;51.464;6.968;2022-09-16T06:38:39;13.20;99.90
22288;DHT22;11312;51.464;6.968;2022-09-16T06:41:07;13.20;99.90
22288;DHT22;11312;51.464;6.968;2022-09-16T06:43:34;13.20;99.90
22288;DHT22;11312;51.464;6.968;2022-09-16T06:46:04;13.20;99.90
22288;DHT22;11312;51.464;6.968;2022-09-16T06:48:33;13.20;99.90
22288;DHT22;11312;51.464;6.968;2022-09-16T06:51:00;13.20;99.90
22288;DHT22;11312;51.464;6.968;2022-09-16T06:53:27;13.40;99.90
22288;DHT22;11312;51.464;6.968;2022-09-16T06:55:53;13.40;99.90
22288;DHT22;11312;51.464;6.968;2022-09-16T06:58:18;13.10;99.90
22288;DHT22;11312;51.464;6.968;2022-09-16T07:00:44;13.50;99.90
22288;DHT22;11312;51.464;6.968;2022-09-16T07:03:10;13.70;99.90
22288;DHT22;11312;51.464;6.968;2022-09-16T07:05:35;14.00;99.90
22288;DHT22;11312;51.464;6.968;2022-09-16T07:08:01;14.10;10.90
22288;DHT22;11312;51.464;6.968;2022-09-16T07:10:27;14.20;98.10
22288;DHT22;11312;51.464;6.968;2022-09-16T07:12:52;14.30;79.80
22288;DHT22;11312;51.464;6.968;2022-09-16T07:15:18;14.30;1.00
22288;DHT22;11312;51.464;6.968;2022-09-16T07:17:44;14.40;26.00
22288;DHT22;11312;51.464;6.968;2022-09-16T07:20:09;14.50;1.00
22288;DHT22;11312;51.464;6.968;2022-09-16T07:22:35;14.50;1.00
22288;DHT22;11312;51.464;6.968;2022-09-16T07:25:00;14.40;99.90
22288;DHT22;11312;51.464;6.968;2022-09-16T07:27:26;14.80;1.00
22288;DHT22;11312;51.464;6.968;2022-09-16T07:29:52;14.70;1.00
22288;DHT22;11312;51.464;6.968;2022-09-16T07:32:21;15.20;1.00
22288;DHT22;11312;51.464;6.968;2022-09-16T07:34:46;16.50;99.90
22288;DHT22;11312;51.464;6.968;2022-09-16T07:37:12;17.60;1.00
22288;DHT22;11312;51.464;6.968;2022-09-16T07:39:39;17.80;99.90
22288;DHT22;11312;51.464;6.968;2022-09-16T07:42:05;18.00;96.00
22288;DHT22;11312;51.464;6.968;2022-09-16T07:44:30;17.60;1.00
22288;DHT22;11312;51.464;6.968;2022-09-16T07:46:56;17.10;99.90
22288;DHT22;11312;51.464;6.968;2022-09-16T07:49:21;17.30;1.00
22288;DHT22;11312;51.464;6.968;2022-09-16T07:51:47;17.60;99.90
22288;DHT22;11312;51.464;6.968;2022-09-16T07:54:15;17.90;1.00
22288;DHT22;11312;51.464;6.968;2022-09-16T07:56:42;18.30;51.00
22288;DHT22;11312;51.464;6.968;2022-09-16T07:59:11;18.30;99.90
22288;DHT22;11312;51.464;6.968;2022-09-16T08:01:37;18.60;1.00
22288;DHT22;11312;51.464;6.968;2022-09-16T08:04:03;18.60;1.00
22288;DHT22;11312;51.464;6.968;2022-09-16T08:06:30;18.50;99.90
22288;DHT22;11312;51.464;6.968;2022-09-16T08:08:58;19.00;1.00
22288;DHT22;11312;51.464;6.968;2022-09-16T08:11:25;19.30;1.00
22288;DHT22;11312;51.464;6.968;2022-09-16T08:13:51;19.30;1.00
22288;DHT22;11312;51.464;6.968;2022-09-16T08:16:19;19.80;1.00
22288;DHT22;11312;51.464;6.968;2022-09-16T08:18:48;19.30;99.90
22288;DHT22;11312;51.464;6.968;2022-09-16T08:21:19;19.70;1.00
22288;DHT22;11312;51.464;6.968;2022-09-16T08:23:45;20.40;99.90
22288;DHT22;11312;51.464;6.968;2022-09-16T08:26:12;20.80;1.00
22288;DHT22;11312;51.464;6.968;2022-09-16T08:28:43;21.00;1.00
22288;DHT22;11312;51.464;6.968;2022-09-16T08:31:09;20.30;1.00
22288;DHT22;11312;51.464;6.968;2022-09-16T08:33:38;20.10;1.00
22288;DHT22;11312;51.464;6.968;2022-09-16T08:38:33;19.40;23.10
22288;DHT22;11312;51.464;6.968;2022-09-16T08:44:11;19.80;1.00
22288;DHT22;11312;51.464;6.968;2022-09-16T08:51:53;19.10;1.00
22288;DHT22;11312;51.464;6.968;2022-09-16T08:54:33;18.20;99.90
22288;DHT22;11312;51.464;6.968;2022-09-16T08:57:04;17.50;99.90
22288;DHT22;11312;51.464;6.968;2022-09-16T08:59:34;17.70;99.90
22288;DHT22;11312;51.464;6.968;2022-09-16T09:04:45;18.30;1.00
22288;DHT22;11312;51.464;6.968;2022-09-16T09:10:17;17.20;99.90
22288;DHT22;11312;51.464;6.968;2022-09-16T09:12:55;17.00;1.00
22288;DHT22;11312;51.464;6.968;2022-09-16T09:18:11;20.10;1.00
22288;DHT22;11312;51.464;6.968;2022-09-16T09:26:48;21.60;99.90
22288;DHT22;11312;51.464;6.968;2022-09-16T09:32:26;18.90;1.00
22288;DHT22;11312;51.464;6.968;2022-09-16T09:35:41;18.30;1.00
22288;DHT22;11312;51.464;6.968;2022-09-16T09:38:47;19.20;1.00
22288;DHT22;11312;51.464;6.968;2022-09-16T09:41:27;19.10;1.00
22288;DHT22;11312;51.464;6.968;2022-09-16T09:46:45;19.50;1.00
22288;DHT22;11312;51.464;6.968;2022-09-16T09:49:20;19.20;1.00
22288;DHT22;11312;51.464;6.968;2022-09-16T09:56:56;18.00;1.00
22288;DHT22;11312;51.464;6.968;2022-09-16T10:00:01;17.80;1.00
22288;DHT22;11312;51.464;6.968;2022-09-16T10:02:29;20.00;1.00
22288;DHT22;11312;51.464;6.968;2022-09-16T10:04:55;19.60;1.00
22288;DHT22;11312;51.464;6.968;2022-09-16T10:07:23;19.50;1.00
22288;DHT22;11312;51.464;6.968;2022-09-16T10:10:02;19.00;1.00
22288;DHT22;11312;51.464;6.968;2022-09-16T10:12:31;19.10;1.00
22288;DHT22;11312;51.464;6.968;2022-09-16T10:14:57;17.50;1.00
22288;DHT22;11312;51.464;6.968;2022-09-16T10:17:25;17.40;1.00
22288;DHT22;11312;51.464;6.968;2022-09-16T10:20:00;20.50;47.10
22288;DHT22;11312;51.464;6.968;2022-09-16T10:22:28;21.00;99.90
22288;DHT22;11312;51.464;6.968;2022-09-16T10:25:00;20.90;1.00
22288;DHT22;11312;51.464;6.968;2022-09-16T10:30:16;21.90;99.90
22288;DHT22;11312;51.464;6.968;2022-09-16T10:35:25;20.60;99.90
22288;DHT22;11312;51.464;6.968;2022-09-16T10:40:22;20.00;1.00
22288;DHT22;11312;51.464;6.968;2022-09-16T10:42:53;19.90;1.00
22288;DHT22;11312;51.464;6.968;2022-09-16T10:45:28;19.60;1.00
22288;DHT22;11312;51.464;6.968;2022-09-16T10:47:57;19.60;1.00
22288;DHT22;11312;51.464;6.968;2022-09-16T10:50:24;19.50;1.00
22288;DHT22;11312;51.464;6.968;2022-09-16T10:52:50;19.10;99.90
22288;DHT22;11312;51.464;6.968;2022-09-16T10:57:44;18.90;99.90
22288;DHT22;11312;51.464;6.968;2022-09-16T11:00:15;20.80;1.00
22288;DHT22;11312;51.464;6.968;2022-09-16T11:02:55;22.50;1.00
22288;DHT22;11312;51.464;6.968;2022-09-16T11:08:11;24.80;99.90
22288;DHT22;11312;51.464;6.968;2022-09-16T11:10:58;23.60;99.90
22288;DHT22;11312;51.464;6.968;2022-09-16T11:14:03;22.30;99.90
22288;DHT22;11312;51.464;6.968;2022-09-16T11:16:48;21.80;99.90
22288;DHT22;11312;51.464;6.968;2022-09-16T11:30:12;19.90;1.00
22288;DHT22;11312;51.464;6.968;2022-09-16T11:33:00;19.60;99.90
22288;DHT22;11312;51.464;6.968;2022-09-16T11:46:31;21.60;99.90
22288;DHT22;11312;51.464;6.968;2022-09-16T11:51:37;22.40;99.90
22288;DHT22;11312;51.464;6.968;2022-09-16T11:54:24;22.30;99.90
22288;DHT22;11312;51.464;6.968;2022-09-16T11:57:07;22.00;99.90
22288;DHT22;11312;51.464;6.968;2022-09-16T11:59:38;23.80;99.90
22288;DHT22;11312;51.464;6.968;2022-09-16T12:02:17;22.00;99.90
22288;DHT22;11312;51.464;6.968;2022-09-16T12:04:57;23.10;99.90
22288;DHT22;11312;51.464;6.968;2022-09-16T12:07:31;23.80;99.90
22288;DHT22;11312;51.464;6.968;2022-09-16T12:12:51;23.70;99.90
22288;DHT22;11312;51.464;6.968;2022-09-16T12:15:22;25.20;99.90
22288;DHT22;11312;51.464;6.968;2022-09-16T12:18:14;28.80;99.90
22288;DHT22;11312;51.464;6.968;2022-09-16T12:20:53;29.50;99.90
22288;DHT22;11312;51.464;6.968;2022-09-16T12:23:32;31.00;99.90
22288;DHT22;11312;51.464;6.968;2022-09-16T12:31:36;29.90;99.90
22288;DHT22;11312;51.464;6.968;2022-09-16T12:34:14;31.10;99.90
22288;DHT22;11312;51.464;6.968;2022-09-16T12:36:46;30.90;99.90
22288;DHT22;11312;51.464;6.968;2022-09-16T12:39:12;31.80;99.90
22288;DHT22;11312;51.464;6.968;2022-09-16T12:41:57;30.80;99.90
22288;DHT22;11312;51.464;6.968;2022-09-16T12:44:58;30.40;99.90
22288;DHT22;11312;51.464;6.968;2022-09-16T12:50:37;31.60;99.90
22288;DHT22;11312;51.464;6.968;2022-09-16T13:01:26;29.80;99.90
22288;DHT22;11312;51.464;6.968;2022-09-16T13:03:56;29.90;99.90
22288;DHT22;11312;51.464;6.968;2022-09-16T13:06:29;30.20;99.90
22288;DHT22;11312;51.464;6.968;2022-09-16T13:09:18;26.70;99.90
22288;DHT22;11312;51.464;6.968;2022-09-16T13:11:55;23.90;99.90
22288;DHT22;11312;51.464;6.968;2022-09-16T13:14:25;22.20;99.90
22288;DHT22;11312;51.464;6.968;2022-09-16T13:16:58;20.80;99.90
22288;DHT22;11312;51.464;6.968;2022-09-16T13:22:55;20.90;99.90
22288;DHT22;11312;51.464;6.968;2022-09-16T13:25:24;20.60;99.90
22288;DHT22;11312;51.464;6.968;2022-09-16T13:27:58;19.20;99.90
22288;DHT22;11312;51.464;6.968;2022-09-16T13:30:34;18.10;99.90
22288;DHT22;11312;51.464;6.968;2022-09-16T13:37:57;16.40;14.40
22288;DHT22;11312;51.464;6.968;2022-09-16T13:40:28;16.40;40.70
22288;DHT22;11312;51.464;6.968;2022-09-16T13:43:36;16.30;99.90
22288;DHT22;11312;51.464;6.968;2022-09-16T13:46:34;16.30;99.90
22288;DHT22;11312;51.464;6.968;2022-09-16T13:51:43;16.40;99.90
22288;DHT22;11312;51.464;6.968;2022-09-16T14:02:13;21.00;99.90
22288;DHT22;11312;51.464;6.968;2022-09-16T14:07:48;25.40;99.90
22288;DHT22;11312;51.464;6.968;2022-09-16T14:13:15;25.20;99.90
22288;DHT22;11312;51.464;6.968;2022-09-16T14:15:47;21.80;99.90
22288;DHT22;11312;51.464;6.968;2022-09-16T14:18:17;20.90;99.90
22288;DHT22;11312;51.464;6.968;2022-09-16T14:21:00;23.70;99.90
22288;DHT22;11312;51.464;6.968;2022-09-16T14:23:27;24.80;99.90
22288;DHT22;11312;51.464;6.968;2022-09-16T14:25:52;26.20;99.90
22288;DHT22;11312;51.464;6.968;2022-09-16T14:31:00;24.40;99.90
22288;DHT22;11312;51.464;6.968;2022-09-16T14:33:53;25.20;99.90
22288;DHT22;11312;51.464;6.968;2022-09-16T14:36:27;25.30;99.90
22288;DHT22;11312;51.464;6.968;2022-09-16T14:38:57;24.50;99.90
22288;DHT22;11312;51.464;6.968;2022-09-16T14:41:34;25.10;99.90
22288;DHT22;11312;51.464;6.968;2022-09-16T14:46:56;23.50;99.90
22288;DHT22;11312;51.464;6.968;2022-09-16T14:49:23;22.20;99.90
22288;DHT22;11312;51.464;6.968;2022-09-16T14:51:57;21.80;99.90
22288;DHT22;11312;51.464;6.968;2022-09-16T14:54:25;21.60;99.90
22288;DHT22;11312;51.464;6.968;2022-09-16T14:57:00;20.70;99.90
22288;DHT22;11312;51.464;6.968;2022-09-16T14:59:37;20.10;99.90
22288;DHT22;11312;51.464;6.968;2022-09-16T15:04:40;19.40;99.90
22288;DHT22;11312;51.464;6.968;2022-09-16T15:07:14;19.50;1.00
22288;DHT22;11312;51.464;6.968;2022-09-16T15:10:01;19.50;1.00
22288;DHT22;11312;51.464;6.968;2022-09-16T15:12:43;19.00;99.90
22288;DHT22;11312;51.464;6.968;2022-09-16T15:15:19;18.70;99.90
22288;DHT22;11312;51.464;6.968;2022-09-16T15:20:25;18.90;1.00
22288;DHT22;11312;51.464;6.968;2022-09-16T15:22:52;18.70;1.00
22288;DHT22;11312;51.464;6.968;2022-09-16T15:25:27;18.80;99.90
22288;DHT22;11312;51.464;6.968;2022-09-16T15:28:13;19.00;1.00
22288;DHT22;11312;51.464;6.968;2022-09-16T15:30:47;18.40;1.00
22288;DHT22;11312;51.464;6.968;2022-09-16T15:33:25;18.00;1.00
22288;DHT22;11312;51.464;6.968;2022-09-16T15:35:51;17.90;1.00
22288;DHT22;11312;51.464;6.968;2022-09-16T15:38:21;17.70;1.00
22288;DHT22;11312;51.464;6.968;2022-09-16T15:40:59;17.80;1.00
22288;DHT22;11312;51.464;6.968;2022-09-16T15:43:36;17.60;1.00
22288;DHT22;11312;51.464;6.968;2022-09-16T15:46:11;17.70;1.00
22288;DHT22;11312;51.464;6.968;2022-09-16T15:48:43;17.80;1.00
22288;DHT22;11312;51.464;6.968;2022-09-16T15:53:47;17.30;1.00
22288;DHT22;11312;51.464;6.968;2022-09-16T15:56:33;17.10;1.00
22288;DHT22;11312;51.464;6.968;2022-09-16T15:59:06;17.00;1.00
22288;DHT22;11312;51.464;6.968;2022-09-16T16:01:46;17.00;1.00
22288;DHT22;11312;51.464;6.968;2022-09-16T16:04:25;16.90;1.00
22288;DHT22;11312;51.464;6.968;2022-09-16T16:07:04;16.90;1.00
22288;DHT22;11312;51.464;6.968;2022-09-16T16:09:37;16.80;1.00
22288;DHT22;11312;51.464;6.968;2022-09-16T16:12:06;16.60;96.50
22288;DHT22;11312;51.464;6.968;2022-09-16T16:14:33;16.60;3.90
22288;DHT22;11312;51.464;6.968;2022-09-16T16:17:04;16.30;99.90
22288;DHT22;11312;51.464;6.968;2022-09-16T16:19:30;16.20;1.00
22288;DHT22;11312;51.464;6.968;2022-09-16T16:21:56;16.10;1.00
22288;DHT22;11312;51.464;6.968;2022-09-16T16:24:23;16.00;1.00
22288;DHT22;11312;51.464;6.968;2022-09-16T16:26:49;15.90;1.00
22288;DHT22;11312;51.464;6.968;2022-09-16T16:29:15;15.70;99.90
22288;DHT22;11312;51.464;6.968;2022-09-16T16:32:00;15.80;99.90
22288;DHT22;11312;51.464;6.968;2022-09-16T16:34:26;15.80;35.60
22288;DHT22;11312;51.464;6.968;2022-09-16T16:36:52;15.70;99.90
22288;DHT22;11312;51.464;6.968;2022-09-16T16:39:17;15.70;1.00
22288;DHT22;11312;51.464;6.968;2022-09-16T16:41:43;15.60;99.90
22288;DHT22;11312;51.464;6.968;2022-09-16T16:44:08;15.60;1.00
22288;DHT22;11312;51.464;6.968;2022-09-16T16:46:34;15.60;99.90
22288;DHT22;11312;51.464;6.968;2022-09-16T16:49:00;15.40;99.90
22288;DHT22;11312;51.464;6.968;2022-09-16T16:51:25;15.50;99.90
22288;DHT22;11312;51.464;6.968;2022-09-16T16:53:51;15.60;1.00
22288;DHT22;11312;51.464;6.968;2022-09-16T16:56:17;15.50;1.00
22288;DHT22;11312;51.464;6.968;2022-09-16T16:58:43;15.40;1.00
22288;DHT22;11312;51.464;6.968;2022-09-16T17:01:14;15.40;1.00
22288;DHT22;11312;51.464;6.968;2022-09-16T17:03:41;15.20;1.00
22288;DHT22;11312;51.464;6.968;2022-09-16T17:06:07;15.10;99.90
22288;DHT22;11312;51.464;6.968;2022-09-16T17:08:34;14.90;1.00
22288;DHT22;11312;51.464;6.968;2022-09-16T17:11:12;14.80;1.00
22288;DHT22;11312;51.464;6.968;2022-09-16T17:13:44;14.60;99.90
22288;DHT22;11312;51.464;6.968;2022-09-16T17:16:12;14.60;99.90
22288;DHT22;11312;51.464;6.968;2022-09-16T17:18:39;14.60;99.90
22288;DHT22;11312;51.464;6.968;2022-09-16T17:21:10;14.40;1.00
22288;DHT22;11312;51.464;6.968;2022-09-16T17:23:36;14.50;1.00
22288;DHT22;11312;51.464;6.968;2022-09-16T17:26:03;14.40;99.90
22288;DHT22;11312;51.464;6.968;2022-09-16T17:28:29;14.30;1.00
22288;DHT22;11312;51.464;6.968;2022-09-16T17:30:55;14.10;1.00
22288;DHT22;11312;51.464;6.968;2022-09-16T17:33:21;14.20;1.00
22288;DHT22;11312;51.464;6.968;2022-09-16T17:35:46;14.10;99.90
22288;DHT22;11312;51.464;6.968;2022-09-16T17:38:12;14.00;99.90
22288;DHT22;11312;51.464;6.968;2022-09-16T17:40:38;13.90;1.00
22288;DHT22;11312;51.464;6.968;2022-09-16T17:43:04;14.00;1.00
22288;DHT22;11312;51.464;6.968;2022-09-16T17:45:32;13.90;1.00
22288;DHT22;11312;51.464;6.968;2022-09-16T17:47:58;13.90;1.00
22288;DHT22;11312;51.464;6.968;2022-09-16T17:50:24;13.90;1.00
22288;DHT22;11312;51.464;6.968;2022-09-16T17:52:50;13.90;1.00
22288;DHT22;11312;51.464;6.968;2022-09-16T17:55:16;14.10;1.00
22288;DHT22;11312;51.464;6.968;2022-09-16T17:57:41;13.90;1.00
22288;DHT22;11312;51.464;6.968;2022-09-16T18:00:07;13.90;1.00
22288;DHT22;11312;51.464;6.968;2022-09-16T18:02:34;13.90;99.90
22288;DHT22;11312;51.464;6.968;2022-09-16T18:05:00;13.90;99.90
22288;DHT22;11312;51.464;6.968;2022-09-16T18:07:26;13.80;1.00
22288;DHT22;11312;51.464;6.968;2022-09-16T18:09:52;13.80;1.00
22288;DHT22;11312;51.464;6.968;2022-09-16T18:12:17;13.70;1.00
22288;DHT22;11312;51.464;6.968;2022-09-16T18:14:43;13.60;1.00
22288;DHT22;11312;51.464;6.968;2022-09-16T18:17:09;13.60;99.90
22288;DHT22;11312;51.464;6.968;2022-09-16T18:19:34;13.60;99.90
22288;DHT22;11312;51.464;6.968;2022-09-16T18:22:00;13.60;1.00
22288;DHT22;11312;51.464;6.968;2022-09-16T18:24:26;13.70;99.90
22288;DHT22;11312;51.464;6.968;2022-09-16T18:26:51;13.80;99.90
22288;DHT22;11312;51.464;6.968;2022-09-16T18:29:17;13.80;1.00
22288;DHT22;11312;51.464;6.968;2022-09-16T18:31:45;13.90;1.00
22288;DHT22;11312;51.464;6.968;2022-09-16T18:34:11;13.90;1.00
22288;DHT22;11312;51.464;6.968;2022-09-16T18:36:37;13.90;99.90
22288;DHT22;11312;51.464;6.968;2022-09-16T18:39:04;13.70;1.00
22288;DHT22;11312;51.464;6.968;2022-09-16T18:41:35;13.70;1.00
22288;DHT22;11312;51.464;6.968;2022-09-16T18:44:04;13.70;91.00
22288;DHT22;11312;51.464;6.968;2022-09-16T18:46:33;13.60;23.30
22288;DHT22;11312;51.464;6.968;2022-09-16T18:48:59;13.60;1.00
22288;DHT22;11312;51.464;6.968;2022-09-16T18:51:33;13.40;1.00
22288;DHT22;11312;51.464;6.968;2022-09-16T18:54:02;13.40;1.00
22288;DHT22;11312;51.464;6.968;2022-09-16T18:56:30;13.30;1.00
22288;DHT22;11312;51.464;6.968;2022-09-16T18:59:18;13.30;1.00